Time;durP1;ratioP1;P1;durP2;ratioP2;P2;SDS_P1;SDS_P2;PMS_P1;PMS_P2;Temp;Humidity;BMP_temperature;BMP_pressure;BME280_temperature;BME280_humidity;BME280_pressure;Samples;Min_cycle;Max_cycle;Signal;HPM_P1;HPM_P2
2023/11/12 00:01:05;;;;;;;;;;;9.10;93.80;;;;;;4929954;29;19917;-81
2023/11/12 00:03:32;;;;;;;;;;;9.10;93.80;;;;;;4915139;29;20392;-82
2023/11/12 00:05:58;;;;;;;;;;;9.10;93.80;;;;;;4909210;29;19938;-82
2023/11/12 00:08:24;;;;;;;;;;;9.10;93.90;;;;;;4909421;29;20263;-82
2023/11/12 00:10:49;;;;;;;;;;;9.10;93.90;;;;;;4912984;29;20486;-82
2023/11/12 00:13:15;;;;;;;;;;;9.10;93.90;;;;;;4908718;29;19943;-82
2023/11/12 00:15:41;;;;;;;;;;;9.10;93.90;;;;;;4927758;29;20386;-82
2023/11/12 00:18:06;;;;;;;;;;;9.10;93.90;;;;;;4908899;29;20290;-82
2023/11/12 00:20:33;;;;;;;;;;;9.20;94.00;;;;;;4909501;29;19955;-82
2023/11/12 00:22:59;;;;;;;;;;;9.20;94.00;;;;;;4907927;29;20452;-81
2023/11/12 00:25:24;;;;;;;;;;;9.20;94.00;;;;;;4910598;29;19911;-82
2023/11/12 00:27:50;;;;;;;;;;;9.10;93.90;;;;;;4909791;29;19966;-82
2023/11/12 00:30:16;;;;;;;;;;;9.10;93.90;;;;;;4908768;29;19915;-81
2023/11/12 00:32:41;;;;;;;;;;;9.20;94.00;;;;;;4910406;29;19947;-81
2023/11/12 00:35:06;;;;;;;;;;;9.10;93.90;;;;;;4907410;29;19927;-81
2023/11/12 00:37:32;;;;;;;;;;;9.20;94.00;;;;;;4911531;29;20409;-81
2023/11/12 00:39:58;;;;;;;;;;;9.20;93.90;;;;;;4914384;29;19951;-82
2023/11/12 00:42:23;;;;;;;;;;;9.20;93.90;;;;;;4915647;29;19911;-81
2023/11/12 00:44:49;;;;;;;;;;;9.10;93.90;;;;;;4912639;29;19918;-82
2023/11/12 00:47:14;;;;;;;;;;;9.10;94.00;;;;;;4914013;29;19922;-82
2023/11/12 00:49:40;;;;;;;;;;;9.00;94.00;;;;;;4913770;29;19914;-82
2023/11/12 00:52:05;;;;;;;;;;;9.00;94.10;;;;;;4919244;29;19915;-81
2023/11/12 00:54:31;;;;;;;;;;;9.00;94.10;;;;;;4908720;29;20362;-82
2023/11/12 00:56:56;;;;;;;;;;;9.00;94.10;;;;;;4927398;29;20003;-82
2023/11/12 00:59:24;;;;;;;;;;;9.10;94.20;;;;;;4912932;29;20313;-81
2023/11/12 01:01:49;;;;;;;;;;;9.10;94.20;;;;;;4913528;29;19911;-82
2023/11/12 01:04:15;;;;;;;;;;;9.00;94.10;;;;;;4913871;29;20448;-81
2023/11/12 01:06:40;;;;;;;;;;;8.90;94.10;;;;;;4914991;29;19919;-82
2023/11/12 01:09:08;;;;;;;;;;;8.90;94.20;;;;;;4912279;29;19942;-82
2023/11/12 01:11:33;;;;;;;;;;;8.80;94.30;;;;;;4912930;29;19912;-82
2023/11/12 01:13:59;;;;;;;;;;;8.80;94.40;;;;;;4914774;29;20343;-82
2023/11/12 01:16:25;;;;;;;;;;;8.70;94.50;;;;;;4923883;29;19911;-81
2023/11/12 01:18:51;;;;;;;;;;;8.70;94.50;;;;;;4915409;29;19911;-81
2023/11/12 01:21:16;;;;;;;;;;;8.60;94.60;;;;;;4915241;29;19915;-81
2023/11/12 01:23:42;;;;;;;;;;;8.60;94.60;;;;;;4914454;29;19919;-81
2023/11/12 01:26:07;;;;;;;;;;;8.50;94.70;;;;;;4913894;29;19911;-81
2023/11/12 01:28:34;;;;;;;;;;;8.40;94.70;;;;;;4912250;29;19926;-82
2023/11/12 01:31:00;;;;;;;;;;;8.40;94.80;;;;;;4907221;29;20640;-82
2023/11/12 01:33:27;;;;;;;;;;;8.30;94.90;;;;;;4912549;29;19954;-81
2023/11/12 01:35:54;;;;;;;;;;;8.30;94.90;;;;;;4913069;29;19926;-80
2023/11/12 01:38:19;;;;;;;;;;;8.30;95.00;;;;;;4905420;29;19911;-81
2023/11/12 01:40:45;;;;;;;;;;;8.20;95.10;;;;;;4925801;29;19911;-81
2023/11/12 01:43:10;;;;;;;;;;;8.10;95.10;;;;;;4926735;29;19962;-81
2023/11/12 01:45:35;;;;;;;;;;;8.00;95.30;;;;;;4913397;29;20010;-81
2023/11/12 01:48:01;;;;;;;;;;;8.00;95.40;;;;;;4912364;29;19926;-81
2023/11/12 01:50:27;;;;;;;;;;;8.00;95.50;;;;;;4913503;29;19911;-82
2023/11/12 01:52:53;;;;;;;;;;;8.00;95.60;;;;;;4910327;29;20408;-81
2023/11/12 01:55:20;;;;;;;;;;;8.00;95.70;;;;;;4911322;29;19934;-82
2023/11/12 01:57:47;;;;;;;;;;;8.10;95.70;;;;;;4910912;29;20003;-81
2023/11/12 02:00:15;;;;;;;;;;;8.10;95.60;;;;;;4925396;29;20015;-82
2023/11/12 02:02:42;;;;;;;;;;;8.10;95.70;;;;;;4911901;29;19962;-82
2023/11/12 02:05:08;;;;;;;;;;;8.00;95.70;;;;;;4911314;29;19915;-81
2023/11/12 02:07:34;;;;;;;;;;;8.00;95.80;;;;;;4908122;29;20442;-83
2023/11/12 02:10:09;;;;;;;;;;;8.00;95.80;;;;;;4908469;29;19943;-82
2023/11/12 02:12:38;;;;;;;;;;;7.90;95.80;;;;;;4911617;29;19918;-81
2023/11/12 02:15:06;;;;;;;;;;;7.90;95.80;;;;;;4913447;29;19968;-82
2023/11/12 02:17:32;;;;;;;;;;;7.90;95.90;;;;;;4916171;29;19911;-82
2023/11/12 02:20:05;;;;;;;;;;;7.90;96.00;;;;;;4910389;29;19918;-82
2023/11/12 02:22:31;;;;;;;;;;;7.80;96.00;;;;;;4908892;29;19923;-82
2023/11/12 02:24:56;;;;;;;;;;;7.80;96.00;;;;;;4908828;29;19915;-82
2023/11/12 02:27:22;;;;;;;;;;;7.70;96.10;;;;;;4912109;29;19911;-82
2023/11/12 02:29:48;;;;;;;;;;;7.70;96.20;;;;;;4909625;29;19918;-82
2023/11/12 02:32:14;;;;;;;;;;;7.70;96.20;;;;;;4912481;29;20359;-82
2023/11/12 02:34:42;;;;;;;;;;;7.70;96.30;;;;;;4911647;29;19975;-82
2023/11/12 02:37:08;;;;;;;;;;;7.70;96.30;;;;;;4910049;29;20434;-81
2023/11/12 02:39:33;;;;;;;;;;;7.70;96.40;;;;;;4909200;29;19911;-82
2023/11/12 02:41:59;;;;;;;;;;;7.80;96.40;;;;;;4910318;29;19942;-82
2023/11/12 02:44:24;;;;;;;;;;;7.80;96.40;;;;;;4909271;29;19986;-82
2023/11/12 02:46:49;;;;;;;;;;;7.80;96.50;;;;;;4912911;29;19958;-82
2023/11/12 02:49:33;;;;;;;;;;;7.80;96.40;;;;;;4910411;29;19942;-82
2023/11/12 02:51:59;;;;;;;;;;;7.80;96.50;;;;;;4912647;29;20370;-82
2023/11/12 02:54:25;;;;;;;;;;;7.80;96.50;;;;;;4910565;29;20006;-82
2023/11/12 02:56:50;;;;;;;;;;;7.90;96.50;;;;;;4910947;29;19998;-82
2023/11/12 02:59:16;;;;;;;;;;;7.90;96.50;;;;;;4910964;29;19922;-82
2023/11/12 03:01:43;;;;;;;;;;;8.00;96.50;;;;;;4911382;29;19935;-82
2023/11/12 03:04:09;;;;;;;;;;;8.00;96.40;;;;;;4909900;29;20270;-82
2023/11/12 03:06:35;;;;;;;;;;;8.00;96.50;;;;;;4911750;29;19919;-82
2023/11/12 03:09:00;;;;;;;;;;;8.00;96.50;;;;;;4924136;29;19973;-84
2023/11/12 03:11:26;;;;;;;;;;;8.00;96.50;;;;;;4912139;29;20418;-82
2023/11/12 03:13:52;;;;;;;;;;;8.00;96.50;;;;;;4910998;29;20006;-82
2023/11/12 03:16:17;;;;;;;;;;;8.10;96.50;;;;;;4914867;29;20017;-82
2023/11/12 03:18:46;;;;;;;;;;;8.10;96.50;;;;;;4918088;29;19911;-82
2023/11/12 03:21:11;;;;;;;;;;;8.10;96.50;;;;;;4905432;29;19992;-83
2023/11/12 03:23:37;;;;;;;;;;;8.10;96.60;;;;;;4912704;29;20010;-83
2023/11/12 03:26:03;;;;;;;;;;;8.10;96.70;;;;;;4910321;29;20006;-81
2023/11/12 03:28:28;;;;;;;;;;;8.10;96.70;;;;;;4910108;29;20417;-83
2023/11/12 03:30:54;;;;;;;;;;;8.10;96.70;;;;;;4908855;29;19970;-82
2023/11/12 03:33:19;;;;;;;;;;;8.10;96.70;;;;;;4911997;29;19915;-82
2023/11/12 03:35:47;;;;;;;;;;;8.10;96.70;;;;;;4911732;29;20102;-82
2023/11/12 03:38:12;;;;;;;;;;;8.00;96.60;;;;;;4909549;29;20371;-83
2023/11/12 03:40:38;;;;;;;;;;;8.00;96.60;;;;;;4911854;29;19913;-82
2023/11/12 03:43:04;;;;;;;;;;;8.00;96.70;;;;;;4911005;29;19911;-82
2023/11/12 03:45:31;;;;;;;;;;;8.00;96.60;;;;;;4910625;29;19915;-81
2023/11/12 03:47:56;;;;;;;;;;;8.00;96.60;;;;;;4893878;29;19942;-83
2023/11/12 03:50:21;;;;;;;;;;;8.00;96.60;;;;;;4918668;29;20314;-82
2023/11/12 03:52:48;;;;;;;;;;;8.00;96.60;;;;;;4907790;29;19918;-83
2023/11/12 03:55:14;;;;;;;;;;;8.00;96.60;;;;;;4911649;29;19975;-82
2023/11/12 03:57:40;;;;;;;;;;;8.00;96.60;;;;;;4907526;29;19919;-83
2023/11/12 04:00:06;;;;;;;;;;;7.90;96.60;;;;;;4925037;29;19922;-83
2023/11/12 04:02:32;;;;;;;;;;;7.90;96.70;;;;;;4911314;29;19911;-83
2023/11/12 04:04:58;;;;;;;;;;;7.90;96.80;;;;;;4908196;29;19911;-83
2023/11/12 04:07:23;;;;;;;;;;;7.90;96.80;;;;;;4909912;29;19918;-83
2023/11/12 04:09:48;;;;;;;;;;;8.00;96.80;;;;;;4914144;29;19998;-83
2023/11/12 04:12:14;;;;;;;;;;;8.00;96.80;;;;;;4912775;29;19926;-83
2023/11/12 04:14:39;;;;;;;;;;;7.90;96.80;;;;;;4916396;29;19923;-83
2023/11/12 04:17:05;;;;;;;;;;;7.90;96.90;;;;;;4920240;29;19953;-83
2023/11/12 04:19:30;;;;;;;;;;;7.90;97.00;;;;;;4914016;29;19911;-83
2023/11/12 04:21:56;;;;;;;;;;;7.90;97.00;;;;;;4909949;29;19929;-82
2023/11/12 04:24:21;;;;;;;;;;;8.00;97.00;;;;;;4913764;29;19915;-83
2023/11/12 04:26:47;;;;;;;;;;;8.00;97.00;;;;;;4915272;29;19915;-83
2023/11/12 04:29:13;;;;;;;;;;;8.00;97.00;;;;;;4916385;29;20277;-83
2023/11/12 04:31:39;;;;;;;;;;;8.00;97.00;;;;;;4911549;29;19911;-84
2023/11/12 04:34:05;;;;;;;;;;;8.00;97.00;;;;;;4912895;29;19919;-83
2023/11/12 04:36:30;;;;;;;;;;;8.00;97.10;;;;;;4909856;29;19911;-83
2023/11/12 04:38:57;;;;;;;;;;;8.00;97.10;;;;;;4912567;29;19915;-82
2023/11/12 04:41:25;;;;;;;;;;;8.00;97.10;;;;;;4914643;29;19912;-82
2023/11/12 04:43:51;;;;;;;;;;;8.00;97.10;;;;;;4915006;29;19918;-83
2023/11/12 04:46:20;;;;;;;;;;;8.00;97.10;;;;;;4909496;29;19979;-83
2023/11/12 04:48:45;;;;;;;;;;;8.10;97.10;;;;;;4906607;29;19918;-83
2023/11/12 04:51:12;;;;;;;;;;;8.00;97.10;;;;;;4913017;29;19911;-82
2023/11/12 04:53:39;;;;;;;;;;;8.00;97.10;;;;;;4911298;29;19921;-82
2023/11/12 04:56:08;;;;;;;;;;;7.90;97.00;;;;;;4911965;29;19919;-82
2023/11/12 04:58:34;;;;;;;;;;;7.90;97.10;;;;;;4913428;29;20356;-83
2023/11/12 05:00:59;;;;;;;;;;;7.90;97.10;;;;;;4908882;29;20018;-82
2023/11/12 05:03:25;;;;;;;;;;;7.90;97.10;;;;;;4910853;29;19919;-83
2023/11/12 05:05:51;;;;;;;;;;;7.90;97.20;;;;;;4911707;29;20405;-83
2023/11/12 05:08:16;;;;;;;;;;;8.00;97.20;;;;;;4912437;29;19915;-83
2023/11/12 05:10:42;;;;;;;;;;;7.90;97.20;;;;;;4911266;29;20709;-82
2023/11/12 05:13:08;;;;;;;;;;;7.90;97.30;;;;;;4911416;29;19922;-82
2023/11/12 05:15:34;;;;;;;;;;;7.80;97.30;;;;;;4909640;29;19919;-83
2023/11/12 05:18:05;;;;;;;;;;;7.90;97.40;;;;;;4912005;29;19918;-83
2023/11/12 05:20:32;;;;;;;;;;;7.80;97.70;;;;;;4909143;29;19915;-82
2023/11/12 05:22:58;;;;;;;;;;;7.80;97.50;;;;;;4913037;29;19998;-82
2023/11/12 05:25:23;;;;;;;;;;;7.70;97.60;;;;;;4912538;29;20009;-82
2023/11/12 05:27:49;;;;;;;;;;;7.70;97.80;;;;;;4914479;29;20259;-82
2023/11/12 05:30:14;;;;;;;;;;;7.70;97.80;;;;;;4913466;29;19937;-81
2023/11/12 05:32:39;;;;;;;;;;;7.80;97.90;;;;;;4913238;29;19911;-81
2023/11/12 05:35:05;;;;;;;;;;;7.80;97.80;;;;;;4910836;29;19958;-81
2023/11/12 05:37:31;;;;;;;;;;;7.70;97.80;;;;;;4911917;29;20051;-82
2023/11/12 05:39:56;;;;;;;;;;;7.70;97.90;;;;;;4912698;29;19915;-82
2023/11/12 05:42:22;;;;;;;;;;;7.80;98.00;;;;;;4913420;29;19911;-82
2023/11/12 05:44:47;;;;;;;;;;;7.90;98.00;;;;;;4914121;29;19918;-82
2023/11/12 05:47:14;;;;;;;;;;;7.90;98.00;;;;;;4907882;29;19915;-83
2023/11/12 05:49:39;;;;;;;;;;;7.90;98.00;;;;;;4912638;29;19976;-82
2023/11/12 05:52:05;;;;;;;;;;;7.90;97.90;;;;;;4912484;29;19914;-81
2023/11/12 05:54:30;;;;;;;;;;;7.90;97.90;;;;;;4910477;29;19930;-81
2023/11/12 05:56:56;;;;;;;;;;;8.00;97.90;;;;;;4912482;29;20031;-81
2023/11/12 05:59:21;;;;;;;;;;;7.90;97.90;;;;;;4913052;29;19911;-81
2023/11/12 06:01:47;;;;;;;;;;;7.90;97.90;;;;;;4912267;29;19915;-82
2023/11/12 06:04:12;;;;;;;;;;;7.90;97.90;;;;;;4912678;29;19911;-82
2023/11/12 06:06:39;;;;;;;;;;;7.80;97.90;;;;;;4913331;29;19959;-82
2023/11/12 06:09:07;;;;;;;;;;;7.80;98.00;;;;;;4909704;29;19912;-82
2023/11/12 06:11:35;;;;;;;;;;;7.80;98.00;;;;;;4910731;29;20301;-81
2023/11/12 06:14:00;;;;;;;;;;;7.70;97.90;;;;;;4910839;29;19911;-82
2023/11/12 06:16:26;;;;;;;;;;;7.70;98.00;;;;;;4912028;29;20501;-82
2023/11/12 06:18:51;;;;;;;;;;;7.60;98.00;;;;;;4913564;29;19911;-81
2023/11/12 06:21:17;;;;;;;;;;;7.60;98.10;;;;;;4912227;29;19919;-82
2023/11/12 06:23:44;;;;;;;;;;;7.60;98.10;;;;;;4912859;29;19923;-82
2023/11/12 06:26:10;;;;;;;;;;;7.60;98.10;;;;;;4923769;29;20298;-82
2023/11/12 06:28:36;;;;;;;;;;;7.60;98.10;;;;;;4911816;29;20005;-82
2023/11/12 06:31:02;;;;;;;;;;;7.60;98.10;;;;;;4910753;29;19998;-82
2023/11/12 06:33:28;;;;;;;;;;;7.60;98.20;;;;;;4911947;29;19915;-82
2023/11/12 06:35:53;;;;;;;;;;;7.60;98.20;;;;;;4908555;29;20039;-82
2023/11/12 06:38:19;;;;;;;;;;;7.50;98.10;;;;;;4907324;29;19918;-82
2023/11/12 06:40:45;;;;;;;;;;;7.50;98.20;;;;;;4910185;29;19911;-82
2023/11/12 06:43:10;;;;;;;;;;;7.40;98.20;;;;;;4909667;29;20014;-82
2023/11/12 06:45:36;;;;;;;;;;;7.40;98.20;;;;;;4907768;29;19967;-83
2023/11/12 06:48:01;;;;;;;;;;;7.40;98.30;;;;;;4912603;29;19979;-83
2023/11/12 06:50:27;;;;;;;;;;;7.40;98.30;;;;;;4911395;29;19918;-82
2023/11/12 06:52:52;;;;;;;;;;;7.50;98.30;;;;;;4917068;29;20378;-82
2023/11/12 06:55:18;;;;;;;;;;;7.40;98.30;;;;;;4909781;29;20298;-82
2023/11/12 06:57:44;;;;;;;;;;;7.40;98.30;;;;;;4911517;29;19918;-83
2023/11/12 07:00:09;;;;;;;;;;;7.40;98.30;;;;;;4912472;29;19911;-83
2023/11/12 07:02:37;;;;;;;;;;;7.40;98.30;;;;;;4908155;29;20291;-83
2023/11/12 07:05:04;;;;;;;;;;;7.40;98.20;;;;;;4913561;29;19911;-83
2023/11/12 07:07:33;;;;;;;;;;;7.40;98.50;;;;;;4912367;29;19918;-82
2023/11/12 07:09:59;;;;;;;;;;;7.40;98.20;;;;;;4908812;29;19911;-82
2023/11/12 07:12:25;;;;;;;;;;;7.40;98.20;;;;;;4911715;29;19915;-82
2023/11/12 07:14:51;;;;;;;;;;;7.40;98.10;;;;;;4915724;29;19973;-83
2023/11/12 07:17:16;;;;;;;;;;;7.40;98.10;;;;;;4910774;29;19922;-82
2023/11/12 07:19:42;;;;;;;;;;;7.50;98.10;;;;;;4907522;29;20430;-82
2023/11/12 07:22:09;;;;;;;;;;;7.50;98.00;;;;;;4905679;29;20017;-82
2023/11/12 07:24:54;;;;;;;;;;;7.50;97.90;;;;;;4930241;28;20433;-82
2023/11/12 07:27:20;;;;;;;;;;;7.50;97.90;;;;;;4909205;29;19947;-82
2023/11/12 07:29:46;;;;;;;;;;;7.60;97.90;;;;;;4909723;29;19957;-83
2023/11/12 07:32:11;;;;;;;;;;;7.60;97.80;;;;;;4917981;29;19911;-81
2023/11/12 07:34:37;;;;;;;;;;;7.60;97.80;;;;;;4912033;29;19923;-82
2023/11/12 07:37:03;;;;;;;;;;;7.70;97.60;;;;;;4926263;29;19950;-84
2023/11/12 07:39:40;;;;;;;;;;;7.70;97.60;;;;;;4913624;29;19911;-83
2023/11/12 07:42:06;;;;;;;;;;;7.70;97.70;;;;;;4918964;29;19911;-83
2023/11/12 07:44:31;;;;;;;;;;;7.80;97.60;;;;;;4917316;29;20326;-84
2023/11/12 07:46:57;;;;;;;;;;;7.80;97.60;;;;;;4914892;29;19915;-85
2023/11/12 07:49:23;;;;;;;;;;;7.90;97.60;;;;;;4918138;29;20366;-89
2023/11/12 07:51:50;;;;;;;;;;;7.90;97.50;;;;;;4917977;29;20009;-87
2023/11/12 07:54:16;;;;;;;;;;;7.80;97.40;;;;;;4917044;29;20017;-88
2023/11/12 07:56:42;;;;;;;;;;;7.90;97.40;;;;;;4918107;29;19969;-88
2023/11/12 07:59:08;;;;;;;;;;;7.80;97.40;;;;;;4937713;28;19911;-87
2023/11/12 08:01:41;;;;;;;;;;;7.90;97.30;;;;;;4920726;29;19911;-89
2023/11/12 08:04:08;;;;;;;;;;;7.90;97.30;;;;;;4919655;29;20314;-90
2023/11/12 08:06:34;;;;;;;;;;;7.90;97.20;;;;;;4914110;29;19958;-90
2023/11/12 08:09:00;;;;;;;;;;;7.80;97.10;;;;;;4930786;28;20334;-91
2023/11/12 08:11:26;;;;;;;;;;;7.80;97.20;;;;;;4898708;29;19915;-90
2023/11/12 08:13:51;;;;;;;;;;;7.90;97.20;;;;;;4915503;29;19911;-92
2023/11/12 08:16:17;;;;;;;;;;;7.90;97.10;;;;;;4923905;29;20002;-94
2023/11/12 08:18:43;;;;;;;;;;;7.90;97.00;;;;;;4918524;29;19911;-90
2023/11/12 08:21:09;;;;;;;;;;;7.90;97.10;;;;;;4910140;29;20311;-84
2023/11/12 08:23:35;;;;;;;;;;;7.90;97.00;;;;;;4910977;29;20503;-86
2023/11/12 08:26:00;;;;;;;;;;;8.00;97.10;;;;;;4911230;29;19915;-85
2023/11/12 08:28:26;;;;;;;;;;;8.00;97.00;;;;;;4911282;29;19915;-85
2023/11/12 08:30:51;;;;;;;;;;;8.10;96.90;;;;;;4910390;29;19918;-86
2023/11/12 08:33:17;;;;;;;;;;;8.10;97.00;;;;;;4906421;29;19990;-85
2023/11/12 08:35:43;;;;;;;;;;;8.10;96.90;;;;;;4908141;29;19982;-85
2023/11/12 08:38:08;;;;;;;;;;;8.20;96.90;;;;;;4907210;29;19916;-83
2023/11/12 08:40:35;;;;;;;;;;;8.20;96.90;;;;;;4910593;29;19911;-86
2023/11/12 08:43:01;;;;;;;;;;;8.20;96.80;;;;;;4909185;29;19926;-84
2023/11/12 08:45:27;;;;;;;;;;;8.20;96.70;;;;;;4914617;29;19910;-85
2023/11/12 08:47:53;;;;;;;;;;;8.20;96.70;;;;;;4932917;28;19910;-85
2023/11/12 08:50:19;;;;;;;;;;;8.20;96.60;;;;;;4915302;29;19926;-85
2023/11/12 08:52:44;;;;;;;;;;;8.30;96.70;;;;;;4914858;29;20002;-85
2023/11/12 08:55:09;;;;;;;;;;;8.30;96.70;;;;;;4934061;29;19970;-85
2023/11/12 08:57:35;;;;;;;;;;;8.40;96.70;;;;;;4919086;29;20338;-85
2023/11/12 09:00:05;;;;;;;;;;;8.40;96.50;;;;;;4916571;29;19950;-84
2023/11/12 09:02:31;;;;;;;;;;;8.30;96.50;;;;;;4918916;29;19915;-86
2023/11/12 09:04:57;;;;;;;;;;;8.30;96.40;;;;;;4916949;29;19978;-86
2023/11/12 09:07:22;;;;;;;;;;;8.30;96.40;;;;;;4917822;29;19934;-85
2023/11/12 09:09:48;;;;;;;;;;;8.40;96.50;;;;;;4910166;29;19965;-85
2023/11/12 09:12:13;;;;;;;;;;;8.40;96.40;;;;;;4911230;29;20334;-86
2023/11/12 09:14:39;;;;;;;;;;;8.40;96.40;;;;;;4912696;29;19929;-86
2023/11/12 09:17:04;;;;;;;;;;;8.50;96.70;;;;;;4918055;29;19958;-85
2023/11/12 09:19:30;;;;;;;;;;;8.50;96.30;;;;;;4921122;29;19915;-88
2023/11/12 09:21:55;;;;;;;;;;;8.50;96.30;;;;;;4936877;29;19914;-88
2023/11/12 09:24:21;;;;;;;;;;;8.60;96.20;;;;;;4922210;29;20010;-87
2023/11/12 09:26:46;;;;;;;;;;;8.60;96.10;;;;;;4934134;28;19914;-86
2023/11/12 09:29:12;;;;;;;;;;;8.70;96.10;;;;;;4930210;29;20010;-87
2023/11/12 09:31:37;;;;;;;;;;;8.70;95.90;;;;;;4915904;29;19978;-87
2023/11/12 09:34:03;;;;;;;;;;;8.70;95.90;;;;;;4923302;29;20333;-87
2023/11/12 09:36:29;;;;;;;;;;;8.70;95.80;;;;;;4925631;29;19959;-88
2023/11/12 09:38:55;;;;;;;;;;;8.70;95.80;;;;;;4930837;29;19911;-86
2023/11/12 09:41:21;;;;;;;;;;;8.70;95.80;;;;;;4915921;29;20369;-86
2023/11/12 09:43:48;;;;;;;;;;;8.70;95.70;;;;;;4933480;29;20379;-86
2023/11/12 09:46:14;;;;;;;;;;;8.60;95.80;;;;;;4915475;29;20095;-88
2023/11/12 09:48:39;;;;;;;;;;;8.70;95.90;;;;;;4916472;29;19910;-87
2023/11/12 09:51:05;;;;;;;;;;;8.80;96.00;;;;;;4912311;29;19911;-84
2023/11/12 09:53:36;;;;;;;;;;;8.90;95.90;;;;;;4915358;29;19921;-84
2023/11/12 09:56:08;;;;;;;;;;;8.90;95.80;;;;;;4936103;28;19927;-85
2023/11/12 09:58:45;;;;;;;;;;;8.90;95.70;;;;;;4911886;29;19911;-84
2023/11/12 10:01:11;;;;;;;;;;;8.90;95.80;;;;;;4910398;29;19911;-85
2023/11/12 10:03:41;;;;;;;;;;;8.90;95.80;;;;;;4912774;29;19918;-85
2023/11/12 10:06:10;;;;;;;;;;;9.00;95.80;;;;;;4929043;29;20157;-85
2023/11/12 10:08:36;;;;;;;;;;;9.00;95.90;;;;;;4911936;29;19921;-85
2023/11/12 10:11:21;;;;;;;;;;;9.00;95.90;;;;;;4913133;29;19910;-84
2023/11/12 10:13:47;;;;;;;;;;;9.00;95.80;;;;;;4914846;29;19915;-83
2023/11/12 10:16:24;;;;;;;;;;;9.10;95.80;;;;;;4912844;29;20619;-84
2023/11/12 10:18:51;;;;;;;;;;;9.10;95.70;;;;;;4911921;29;19912;-83
2023/11/12 10:21:16;;;;;;;;;;;9.20;95.70;;;;;;4910889;29;20294;-84
2023/11/12 10:23:42;;;;;;;;;;;9.30;95.60;;;;;;4913427;29;19911;-84
2023/11/12 10:26:11;;;;;;;;;;;9.40;95.60;;;;;;4912223;29;20325;-84
2023/11/12 10:28:37;;;;;;;;;;;9.50;95.60;;;;;;4911434;29;19982;-84
2023/11/12 10:31:03;;;;;;;;;;;9.70;95.50;;;;;;4912501;29;20366;-83
2023/11/12 10:33:29;;;;;;;;;;;9.70;95.30;;;;;;4913188;29;19933;-83
2023/11/12 10:35:57;;;;;;;;;;;9.80;95.20;;;;;;4914670;29;20370;-85
2023/11/12 10:38:23;;;;;;;;;;;9.90;95.10;;;;;;4917413;29;19922;-85
2023/11/12 10:40:58;;;;;;;;;;;10.00;94.80;;;;;;4909096;29;19919;-84
2023/11/12 10:43:23;;;;;;;;;;;10.00;94.80;;;;;;4914761;29;20345;-84
2023/11/12 10:45:54;;;;;;;;;;;10.00;94.70;;;;;;4910028;29;20544;-84
2023/11/12 10:48:19;;;;;;;;;;;10.00;94.60;;;;;;4930679;29;20004;-84
2023/11/12 10:50:45;;;;;;;;;;;10.10;94.50;;;;;;4930359;29;19928;-84
2023/11/12 10:53:11;;;;;;;;;;;10.20;94.50;;;;;;4918211;29;19970;-84
2023/11/12 10:55:38;;;;;;;;;;;10.20;94.40;;;;;;4916210;29;20020;-84
2023/11/12 10:58:04;;;;;;;;;;;10.20;94.30;;;;;;4914214;29;19915;-83
2023/11/12 11:00:30;;;;;;;;;;;10.30;94.20;;;;;;4909532;29;19915;-83
2023/11/12 11:02:56;;;;;;;;;;;10.40;94.20;;;;;;4930265;29;19919;-84
2023/11/12 11:05:22;;;;;;;;;;;10.40;94.00;;;;;;4913208;29;19911;-84
2023/11/12 11:07:48;;;;;;;;;;;10.50;93.90;;;;;;4923687;29;19929;-84
2023/11/12 11:10:14;;;;;;;;;;;10.50;93.70;;;;;;4912491;29;19922;-84
2023/11/12 11:12:40;;;;;;;;;;;10.50;93.70;;;;;;4923954;29;19996;-84
2023/11/12 11:15:24;;;;;;;;;;;10.60;93.70;;;;;;4915319;29;20379;-83
2023/11/12 11:17:50;;;;;;;;;;;10.60;93.50;;;;;;4927666;29;19911;-85
2023/11/12 11:20:16;;;;;;;;;;;10.70;93.50;;;;;;4912316;29;20091;-84
2023/11/12 11:22:42;;;;;;;;;;;10.80;93.60;;;;;;4913569;29;19915;-84
2023/11/12 11:25:25;;;;;;;;;;;10.80;93.40;;;;;;4911675;29;19911;-84
2023/11/12 11:28:10;;;;;;;;;;;11.00;93.30;;;;;;4915152;29;20008;-84
2023/11/12 11:30:35;;;;;;;;;;;11.00;93.00;;;;;;4912783;29;19962;-85
2023/11/12 11:33:02;;;;;;;;;;;11.20;92.80;;;;;;4927340;29;19915;-84
2023/11/12 11:35:29;;;;;;;;;;;11.30;92.50;;;;;;4925171;29;19919;-85
2023/11/12 11:38:09;;;;;;;;;;;11.40;92.20;;;;;;4925932;29;19995;-85
2023/11/12 11:40:36;;;;;;;;;;;11.50;92.10;;;;;;4911794;29;19919;-85
2023/11/12 11:43:20;;;;;;;;;;;11.60;92.30;;;;;;4912822;29;19911;-85
2023/11/12 11:46:03;;;;;;;;;;;12.20;92.40;;;;;;4914796;29;19915;-85
2023/11/12 11:48:29;;;;;;;;;;;14.40;89.00;;;;;;4929205;29;19918;-85
2023/11/12 11:50:56;;;;;;;;;;;16.00;81.80;;;;;;4925224;29;19915;-84
2023/11/12 11:53:23;;;;;;;;;;;16.70;79.00;;;;;;4921531;29;19922;-85
2023/11/12 11:55:53;;;;;;;;;;;17.40;76.70;;;;;;4912417;29;20373;-85
2023/11/12 11:58:19;;;;;;;;;;;17.90;74.60;;;;;;4909312;29;20309;-85
2023/11/12 12:00:57;;;;;;;;;;;17.00;74.50;;;;;;4916769;29;19911;-85
2023/11/12 12:03:25;;;;;;;;;;;15.90;77.10;;;;;;4915935;29;20255;-85
2023/11/12 12:05:52;;;;;;;;;;;15.10;79.70;;;;;;4933166;28;19953;-85
2023/11/12 12:08:19;;;;;;;;;;;14.70;81.70;;;;;;4915260;29;19911;-85
2023/11/12 12:10:45;;;;;;;;;;;14.30;83.10;;;;;;4932534;29;20005;-86
2023/11/12 12:13:11;;;;;;;;;;;14.40;83.70;;;;;;4915154;29;20371;-85
2023/11/12 12:15:37;;;;;;;;;;;14.60;83.50;;;;;;4913172;29;19930;-85
2023/11/12 12:18:25;;;;;;;;;;;14.50;83.00;;;;;;4912105;29;19911;-84
2023/11/12 12:20:55;;;;;;;;;;;14.20;82.50;;;;;;4928534;29;19914;-85
2023/11/12 12:23:21;;;;;;;;;;;13.90;82.60;;;;;;4920613;29;20770;-84
2023/11/12 12:25:52;;;;;;;;;;;13.70;83.10;;;;;;4914897;29;19915;-84
2023/11/12 12:28:20;;;;;;;;;;;13.30;83.10;;;;;;4914244;29;19922;-85
2023/11/12 12:30:52;;;;;;;;;;;13.10;83.20;;;;;;4928186;29;19918;-85
2023/11/12 12:33:17;;;;;;;;;;;12.80;83.90;;;;;;4919601;29;20317;-85
2023/11/12 12:35:43;;;;;;;;;;;12.70;84.40;;;;;;4915050;29;19930;-86
2023/11/12 12:38:13;;;;;;;;;;;12.60;83.90;;;;;;4916150;29;19911;-86
2023/11/12 12:40:39;;;;;;;;;;;12.80;83.90;;;;;;4924127;29;19926;-86
2023/11/12 12:43:10;;;;;;;;;;;12.90;84.10;;;;;;4924541;29;20005;-85
2023/11/12 12:45:36;;;;;;;;;;;12.70;83.80;;;;;;4933848;28;19954;-85
2023/11/12 12:48:11;;;;;;;;;;;12.50;84.30;;;;;;4919656;29;19961;-86
2023/11/12 12:50:37;;;;;;;;;;;12.30;85.00;;;;;;4921377;29;19915;-83
2023/11/12 12:53:15;;;;;;;;;;;12.10;85.80;;;;;;4917530;29;19918;-84
2023/11/12 12:55:41;;;;;;;;;;;11.90;86.40;;;;;;4921359;29;19922;-84
2023/11/12 12:58:06;;;;;;;;;;;11.70;87.20;;;;;;4912900;29;19919;-84
2023/11/12 13:00:32;;;;;;;;;;;11.70;87.50;;;;;;4916539;29;19919;-84
2023/11/12 13:02:58;;;;;;;;;;;11.60;88.00;;;;;;4919389;29;19915;-84
2023/11/12 13:05:25;;;;;;;;;;;11.50;88.30;;;;;;4918601;29;20009;-85
2023/11/12 13:07:51;;;;;;;;;;;11.50;88.60;;;;;;4926543;29;19911;-85
2023/11/12 13:10:20;;;;;;;;;;;11.40;88.70;;;;;;4927635;29;20562;-85
2023/11/12 13:12:47;;;;;;;;;;;11.40;88.90;;;;;;4924395;29;19917;-85
2023/11/12 13:15:14;;;;;;;;;;;11.40;88.90;;;;;;4916969;29;19965;-85
2023/11/12 13:17:41;;;;;;;;;;;11.40;89.00;;;;;;4914732;29;19922;-85
2023/11/12 13:20:08;;;;;;;;;;;11.30;89.10;;;;;;4917155;29;19950;-85
2023/11/12 13:22:35;;;;;;;;;;;11.30;89.10;;;;;;4931212;29;21057;-86
2023/11/12 13:25:01;;;;;;;;;;;11.30;89.00;;;;;;4909923;29;19926;-85
2023/11/12 13:27:30;;;;;;;;;;;11.20;88.60;;;;;;4914360;29;20013;-85
2023/11/12 13:29:59;;;;;;;;;;;11.10;88.40;;;;;;4911032;29;19919;-85
2023/11/12 13:32:27;;;;;;;;;;;11.10;88.90;;;;;;4930036;29;19958;-85
2023/11/12 13:34:55;;;;;;;;;;;11.20;89.00;;;;;;4915737;29;19966;-86
2023/11/12 13:37:34;;;;;;;;;;;11.30;88.80;;;;;;4905503;29;19915;-85
2023/11/12 13:40:00;;;;;;;;;;;11.30;88.80;;;;;;4914138;29;20494;-84
2023/11/12 13:42:27;;;;;;;;;;;11.20;88.60;;;;;;4917336;29;20440;-85
2023/11/12 13:44:54;;;;;;;;;;;11.20;89.00;;;;;;4912061;29;19915;-84
2023/11/12 13:47:20;;;;;;;;;;;11.10;89.10;;;;;;4915714;29;19954;-84
2023/11/12 13:49:46;;;;;;;;;;;11.10;89.50;;;;;;4915077;29;19915;-85
2023/11/12 13:52:14;;;;;;;;;;;11.10;89.50;;;;;;4910205;29;19941;-85
2023/11/12 13:54:43;;;;;;;;;;;11.00;89.80;;;;;;4930410;29;20294;-84
2023/11/12 13:57:09;;;;;;;;;;;11.00;89.90;;;;;;4910035;29;19934;-84
2023/11/12 13:59:38;;;;;;;;;;;10.90;89.70;;;;;;4908763;29;20409;-84
2023/11/12 14:02:06;;;;;;;;;;;10.80;89.80;;;;;;4912385;29;19915;-84
2023/11/12 14:04:31;;;;;;;;;;;10.80;90.00;;;;;;4913331;29;19911;-85
2023/11/12 14:06:58;;;;;;;;;;;10.80;90.20;;;;;;4912325;29;20277;-85
2023/11/12 14:09:23;;;;;;;;;;;10.80;90.30;;;;;;4932566;29;19919;-85
2023/11/12 14:11:50;;;;;;;;;;;10.80;90.30;;;;;;4919088;29;20006;-85
2023/11/12 14:14:16;;;;;;;;;;;10.80;90.30;;;;;;4916132;29;19970;-86
2023/11/12 14:16:42;;;;;;;;;;;10.70;90.30;;;;;;4919265;29;19911;-85
2023/11/12 14:19:12;;;;;;;;;;;10.70;90.40;;;;;;4929665;29;19971;-85
2023/11/12 14:21:43;;;;;;;;;;;10.70;90.50;;;;;;4911157;29;20033;-85
2023/11/12 14:24:12;;;;;;;;;;;10.60;90.50;;;;;;4914573;29;19938;-85